sensor_id;sensor_type;location;lat;lon;timestamp;P1;durP1;ratioP1;P2;durP2;ratioP2
6412;SDS011;3239;48.714;9.472;2023-04-25T00:01:31;5.53;;;2.40;;
6412;SDS011;3239;48.714;9.472;2023-04-25T00:03:58;2.63;;;2.17;;
6412;SDS011;3239;48.714;9.472;2023-04-25T00:06:25;3.07;;;1.57;;
6412;SDS011;3239;48.714;9.472;2023-04-25T00:08:51;2.77;;;1.93;;
6412;SDS011;3239;48.714;9.472;2023-04-25T00:11:18;4.73;;;2.20;;
6412;SDS011;3239;48.714;9.472;2023-04-25T00:13:44;2.70;;;1.97;;
6412;SDS011;3239;48.714;9.472;2023-04-25T00:16:11;2.80;;;1.67;;
6412;SDS011;3239;48.714;9.472;2023-04-25T00:18:39;2.00;;;1.70;;
6412;SDS011;3239;48.714;9.472;2023-04-25T00:21:05;4.80;;;2.20;;
6412;SDS011;3239;48.714;9.472;2023-04-25T00:23:31;4.70;;;2.27;;
6412;SDS011;3239;48.714;9.472;2023-04-25T00:25:57;2.90;;;2.43;;
6412;SDS011;3239;48.714;9.472;2023-04-25T00:28:22;4.23;;;2.23;;
6412;SDS011;3239;48.714;9.472;2023-04-25T00:30:48;2.77;;;2.30;;
6412;SDS011;3239;48.714;9.472;2023-04-25T00:33:15;3.37;;;2.10;;
6412;SDS011;3239;48.714;9.472;2023-04-25T00:35:41;3.30;;;2.37;;
6412;SDS011;3239;48.714;9.472;2023-04-25T00:38:07;3.90;;;2.50;;
6412;SDS011;3239;48.714;9.472;2023-04-25T00:40:33;2.97;;;2.50;;
6412;SDS011;3239;48.714;9.472;2023-04-25T00:42:59;2.60;;;2.40;;
6412;SDS011;3239;48.714;9.472;2023-04-25T00:45:27;2.77;;;1.87;;
6412;SDS011;3239;48.714;9.472;2023-04-25T00:47:57;2.60;;;2.00;;
6412;SDS011;3239;48.714;9.472;2023-04-25T00:50:23;3.27;;;2.10;;
6412;SDS011;3239;48.714;9.472;2023-04-25T00:52:49;3.37;;;1.90;;
6412;SDS011;3239;48.714;9.472;2023-04-25T00:55:15;2.93;;;2.03;;
6412;SDS011;3239;48.714;9.472;2023-04-25T00:57:42;3.70;;;2.00;;
6412;SDS011;3239;48.714;9.472;2023-04-25T01:00:08;2.77;;;2.10;;
6412;SDS011;3239;48.714;9.472;2023-04-25T01:02:36;2.30;;;1.83;;
6412;SDS011;3239;48.714;9.472;2023-04-25T01:05:03;2.27;;;2.07;;
6412;SDS011;3239;48.714;9.472;2023-04-25T01:07:29;3.77;;;2.37;;
6412;SDS011;3239;48.714;9.472;2023-04-25T01:09:55;3.87;;;2.70;;
6412;SDS011;3239;48.714;9.472;2023-04-25T01:12:22;3.53;;;2.43;;
6412;SDS011;3239;48.714;9.472;2023-04-25T01:14:48;2.70;;;2.27;;
6412;SDS011;3239;48.714;9.472;2023-04-25T01:17:14;3.70;;;2.57;;
6412;SDS011;3239;48.714;9.472;2023-04-25T01:19:44;3.67;;;2.60;;
6412;SDS011;3239;48.714;9.472;2023-04-25T01:22:13;3.47;;;2.43;;
6412;SDS011;3239;48.714;9.472;2023-04-25T01:24:39;4.17;;;2.40;;
6412;SDS011;3239;48.714;9.472;2023-04-25T01:27:06;3.73;;;3.37;;
6412;SDS011;3239;48.714;9.472;2023-04-25T01:29:33;3.07;;;2.77;;
6412;SDS011;3239;48.714;9.472;2023-04-25T01:32:01;5.93;;;3.17;;
6412;SDS011;3239;48.714;9.472;2023-04-25T01:34:26;6.53;;;3.00;;
6412;SDS011;3239;48.714;9.472;2023-04-25T01:36:52;4.90;;;2.97;;
6412;SDS011;3239;48.714;9.472;2023-04-25T01:39:18;3.17;;;2.87;;
6412;SDS011;3239;48.714;9.472;2023-04-25T01:41:48;3.07;;;2.70;;
6412;SDS011;3239;48.714;9.472;2023-04-25T01:44:14;3.80;;;2.57;;
6412;SDS011;3239;48.714;9.472;2023-04-25T01:46:40;3.13;;;2.43;;
6412;SDS011;3239;48.714;9.472;2023-04-25T01:49:06;4.97;;;3.13;;
6412;SDS011;3239;48.714;9.472;2023-04-25T01:51:33;6.13;;;3.70;;
6412;SDS011;3239;48.714;9.472;2023-04-25T01:53:59;7.17;;;2.83;;
6412;SDS011;3239;48.714;9.472;2023-04-25T01:56:29;5.27;;;3.53;;
6412;SDS011;3239;48.714;9.472;2023-04-25T01:58:56;3.07;;;2.70;;
6412;SDS011;3239;48.714;9.472;2023-04-25T02:01:23;6.00;;;3.20;;
6412;SDS011;3239;48.714;9.472;2023-04-25T02:03:48;6.33;;;2.43;;
6412;SDS011;3239;48.714;9.472;2023-04-25T02:06:14;3.93;;;2.83;;
6412;SDS011;3239;48.714;9.472;2023-04-25T02:08:40;4.60;;;3.20;;
6412;SDS011;3239;48.714;9.472;2023-04-25T02:11:06;4.07;;;3.00;;
6412;SDS011;3239;48.714;9.472;2023-04-25T02:13:31;4.43;;;2.87;;
6412;SDS011;3239;48.714;9.472;2023-04-25T02:15:57;4.43;;;2.77;;
6412;SDS011;3239;48.714;9.472;2023-04-25T02:18:23;4.30;;;2.53;;
6412;SDS011;3239;48.714;9.472;2023-04-25T02:20:48;3.53;;;2.77;;
6412;SDS011;3239;48.714;9.472;2023-04-25T02:23:14;3.10;;;2.40;;
6412;SDS011;3239;48.714;9.472;2023-04-25T02:25:40;3.43;;;2.60;;
6412;SDS011;3239;48.714;9.472;2023-04-25T02:28:06;4.43;;;3.43;;
6412;SDS011;3239;48.714;9.472;2023-04-25T02:30:32;4.00;;;2.60;;
6412;SDS011;3239;48.714;9.472;2023-04-25T02:32:58;2.60;;;2.30;;
6412;SDS011;3239;48.714;9.472;2023-04-25T02:35:24;3.37;;;3.07;;
6412;SDS011;3239;48.714;9.472;2023-04-25T02:37:50;3.40;;;3.10;;
6412;SDS011;3239;48.714;9.472;2023-04-25T02:40:16;4.03;;;2.80;;
6412;SDS011;3239;48.714;9.472;2023-04-25T02:42:41;4.80;;;3.10;;
6412;SDS011;3239;48.714;9.472;2023-04-25T02:45:07;3.50;;;3.20;;
6412;SDS011;3239;48.714;9.472;2023-04-25T02:47:34;3.60;;;2.77;;
6412;SDS011;3239;48.714;9.472;2023-04-25T02:50:00;3.60;;;2.63;;
6412;SDS011;3239;48.714;9.472;2023-04-25T02:52:25;5.40;;;3.10;;
6412;SDS011;3239;48.714;9.472;2023-04-25T02:54:51;2.90;;;2.40;;
6412;SDS011;3239;48.714;9.472;2023-04-25T02:57:17;3.40;;;2.73;;
6412;SDS011;3239;48.714;9.472;2023-04-25T02:59:43;4.80;;;2.93;;
6412;SDS011;3239;48.714;9.472;2023-04-25T03:02:09;3.10;;;2.63;;
6412;SDS011;3239;48.714;9.472;2023-04-25T03:04:35;3.03;;;2.73;;
6412;SDS011;3239;48.714;9.472;2023-04-25T03:07:00;2.93;;;2.70;;
6412;SDS011;3239;48.714;9.472;2023-04-25T03:09:26;2.93;;;2.63;;
6412;SDS011;3239;48.714;9.472;2023-04-25T03:11:52;5.57;;;3.30;;
6412;SDS011;3239;48.714;9.472;2023-04-25T03:14:18;4.30;;;2.63;;
6412;SDS011;3239;48.714;9.472;2023-04-25T03:16:43;4.70;;;2.53;;
6412;SDS011;3239;48.714;9.472;2023-04-25T03:19:10;3.20;;;2.90;;
6412;SDS011;3239;48.714;9.472;2023-04-25T03:21:36;3.00;;;2.70;;
6412;SDS011;3239;48.714;9.472;2023-04-25T03:24:02;5.30;;;2.90;;
6412;SDS011;3239;48.714;9.472;2023-04-25T03:26:29;2.77;;;2.53;;
6412;SDS011;3239;48.714;9.472;2023-04-25T03:28:55;3.73;;;2.83;;
6412;SDS011;3239;48.714;9.472;2023-04-25T03:31:21;2.90;;;2.60;;
6412;SDS011;3239;48.714;9.472;2023-04-25T03:33:47;3.30;;;2.87;;
6412;SDS011;3239;48.714;9.472;2023-04-25T03:36:13;3.43;;;2.77;;
6412;SDS011;3239;48.714;9.472;2023-04-25T03:38:39;4.83;;;2.93;;
6412;SDS011;3239;48.714;9.472;2023-04-25T03:41:06;3.50;;;2.50;;
6412;SDS011;3239;48.714;9.472;2023-04-25T03:43:32;3.80;;;3.00;;
6412;SDS011;3239;48.714;9.472;2023-04-25T03:45:57;5.30;;;3.17;;
6412;SDS011;3239;48.714;9.472;2023-04-25T03:48:23;3.77;;;3.30;;
6412;SDS011;3239;48.714;9.472;2023-04-25T03:50:50;3.77;;;2.70;;
6412;SDS011;3239;48.714;9.472;2023-04-25T03:53:17;3.90;;;3.07;;
6412;SDS011;3239;48.714;9.472;2023-04-25T03:55:43;3.47;;;3.10;;
6412;SDS011;3239;48.714;9.472;2023-04-25T03:58:08;3.40;;;3.10;;
6412;SDS011;3239;48.714;9.472;2023-04-25T04:00:34;5.37;;;2.67;;
6412;SDS011;3239;48.714;9.472;2023-04-25T04:03:01;2.90;;;2.40;;
6412;SDS011;3239;48.714;9.472;2023-04-25T04:05:27;6.37;;;3.10;;
6412;SDS011;3239;48.714;9.472;2023-04-25T04:07:53;3.83;;;2.63;;
6412;SDS011;3239;48.714;9.472;2023-04-25T04:10:20;3.13;;;2.60;;
6412;SDS011;3239;48.714;9.472;2023-04-25T04:12:46;4.17;;;3.27;;
6412;SDS011;3239;48.714;9.472;2023-04-25T04:15:11;3.50;;;2.73;;
6412;SDS011;3239;48.714;9.472;2023-04-25T04:17:37;3.20;;;2.90;;
6412;SDS011;3239;48.714;9.472;2023-04-25T04:20:04;5.57;;;2.60;;
6412;SDS011;3239;48.714;9.472;2023-04-25T04:22:31;5.17;;;3.10;;
6412;SDS011;3239;48.714;9.472;2023-04-25T04:24:56;3.97;;;2.90;;
6412;SDS011;3239;48.714;9.472;2023-04-25T04:27:22;4.40;;;2.90;;
6412;SDS011;3239;48.714;9.472;2023-04-25T04:29:48;4.03;;;3.57;;
6412;SDS011;3239;48.714;9.472;2023-04-25T04:32:16;7.80;;;2.83;;
6412;SDS011;3239;48.714;9.472;2023-04-25T04:34:42;3.80;;;3.03;;
6412;SDS011;3239;48.714;9.472;2023-04-25T04:37:08;4.40;;;3.00;;
6412;SDS011;3239;48.714;9.472;2023-04-25T04:39:34;5.90;;;3.10;;
6412;SDS011;3239;48.714;9.472;2023-04-25T04:42:01;2.60;;;2.40;;
6412;SDS011;3239;48.714;9.472;2023-04-25T04:44:28;4.70;;;2.70;;
6412;SDS011;3239;48.714;9.472;2023-04-25T04:46:57;4.80;;;2.73;;
6412;SDS011;3239;48.714;9.472;2023-04-25T04:49:23;3.13;;;2.83;;
6412;SDS011;3239;48.714;9.472;2023-04-25T04:51:49;3.27;;;2.97;;
6412;SDS011;3239;48.714;9.472;2023-04-25T04:54:16;4.90;;;3.10;;
6412;SDS011;3239;48.714;9.472;2023-04-25T04:56:42;4.80;;;2.70;;
6412;SDS011;3239;48.714;9.472;2023-04-25T04:59:08;6.70;;;3.43;;
6412;SDS011;3239;48.714;9.472;2023-04-25T05:01:34;6.03;;;2.73;;
6412;SDS011;3239;48.714;9.472;2023-04-25T05:04:00;3.40;;;2.93;;
6412;SDS011;3239;48.714;9.472;2023-04-25T05:06:27;2.90;;;2.70;;
6412;SDS011;3239;48.714;9.472;2023-04-25T05:08:57;4.00;;;2.87;;
6412;SDS011;3239;48.714;9.472;2023-04-25T05:11:23;3.30;;;2.60;;
6412;SDS011;3239;48.714;9.472;2023-04-25T05:13:53;4.70;;;2.80;;
6412;SDS011;3239;48.714;9.472;2023-04-25T05:16:19;8.37;;;2.67;;
6412;SDS011;3239;48.714;9.472;2023-04-25T05:18:45;7.43;;;2.40;;
6412;SDS011;3239;48.714;9.472;2023-04-25T05:21:12;8.63;;;2.87;;
6412;SDS011;3239;48.714;9.472;2023-04-25T05:23:38;3.37;;;2.70;;
6412;SDS011;3239;48.714;9.472;2023-04-25T05:26:04;2.47;;;2.27;;
6412;SDS011;3239;48.714;9.472;2023-04-25T05:28:30;3.10;;;2.50;;
6412;SDS011;3239;48.714;9.472;2023-04-25T05:30:56;4.17;;;2.87;;
6412;SDS011;3239;48.714;9.472;2023-04-25T05:33:22;8.33;;;2.97;;
6412;SDS011;3239;48.714;9.472;2023-04-25T05:35:48;6.07;;;3.07;;
6412;SDS011;3239;48.714;9.472;2023-04-25T05:38:14;7.27;;;2.77;;
6412;SDS011;3239;48.714;9.472;2023-04-25T05:40:39;5.03;;;2.80;;
6412;SDS011;3239;48.714;9.472;2023-04-25T05:43:05;4.30;;;2.47;;
6412;SDS011;3239;48.714;9.472;2023-04-25T05:45:32;4.57;;;2.23;;
6412;SDS011;3239;48.714;9.472;2023-04-25T05:47:57;5.27;;;2.97;;
6412;SDS011;3239;48.714;9.472;2023-04-25T05:50:23;4.33;;;3.10;;
6412;SDS011;3239;48.714;9.472;2023-04-25T05:52:49;4.70;;;3.00;;
6412;SDS011;3239;48.714;9.472;2023-04-25T05:55:15;3.60;;;3.00;;
6412;SDS011;3239;48.714;9.472;2023-04-25T05:57:41;6.43;;;3.20;;
6412;SDS011;3239;48.714;9.472;2023-04-25T06:00:10;5.90;;;3.13;;
6412;SDS011;3239;48.714;9.472;2023-04-25T06:02:38;3.77;;;2.40;;
6412;SDS011;3239;48.714;9.472;2023-04-25T06:05:03;7.87;;;3.10;;
6412;SDS011;3239;48.714;9.472;2023-04-25T06:07:30;5.13;;;2.90;;
6412;SDS011;3239;48.714;9.472;2023-04-25T06:09:55;8.10;;;2.90;;
6412;SDS011;3239;48.714;9.472;2023-04-25T06:12:22;8.80;;;3.47;;
6412;SDS011;3239;48.714;9.472;2023-04-25T06:14:47;3.07;;;2.50;;
6412;SDS011;3239;48.714;9.472;2023-04-25T06:17:13;10.63;;;2.70;;
6412;SDS011;3239;48.714;9.472;2023-04-25T06:19:39;6.70;;;3.00;;
6412;SDS011;3239;48.714;9.472;2023-04-25T06:22:05;5.00;;;2.67;;
6412;SDS011;3239;48.714;9.472;2023-04-25T06:24:32;3.33;;;2.50;;
6412;SDS011;3239;48.714;9.472;2023-04-25T06:26:58;7.57;;;2.97;;
6412;SDS011;3239;48.714;9.472;2023-04-25T06:29:24;5.60;;;2.83;;
6412;SDS011;3239;48.714;9.472;2023-04-25T06:31:51;7.87;;;2.50;;
6412;SDS011;3239;48.714;9.472;2023-04-25T06:34:17;3.77;;;2.50;;
6412;SDS011;3239;48.714;9.472;2023-04-25T06:36:42;5.53;;;2.60;;
6412;SDS011;3239;48.714;9.472;2023-04-25T06:39:09;3.40;;;2.23;;
6412;SDS011;3239;48.714;9.472;2023-04-25T06:41:35;4.93;;;2.67;;
6412;SDS011;3239;48.714;9.472;2023-04-25T06:44:01;4.27;;;2.97;;
6412;SDS011;3239;48.714;9.472;2023-04-25T06:46:27;5.53;;;2.40;;
6412;SDS011;3239;48.714;9.472;2023-04-25T06:48:53;5.50;;;2.87;;
6412;SDS011;3239;48.714;9.472;2023-04-25T06:51:18;5.33;;;2.97;;
6412;SDS011;3239;48.714;9.472;2023-04-25T06:53:44;3.40;;;2.50;;
6412;SDS011;3239;48.714;9.472;2023-04-25T06:56:10;4.53;;;2.47;;
6412;SDS011;3239;48.714;9.472;2023-04-25T06:58:36;3.00;;;2.20;;
6412;SDS011;3239;48.714;9.472;2023-04-25T07:01:01;10.47;;;2.60;;
6412;SDS011;3239;48.714;9.472;2023-04-25T07:03:27;2.93;;;2.20;;
6412;SDS011;3239;48.714;9.472;2023-04-25T07:05:53;4.80;;;2.13;;
6412;SDS011;3239;48.714;9.472;2023-04-25T07:08:20;2.73;;;2.03;;
6412;SDS011;3239;48.714;9.472;2023-04-25T07:10:46;5.77;;;2.40;;
6412;SDS011;3239;48.714;9.472;2023-04-25T07:13:12;6.13;;;2.00;;
6412;SDS011;3239;48.714;9.472;2023-04-25T07:15:37;2.27;;;1.60;;
6412;SDS011;3239;48.714;9.472;2023-04-25T07:18:03;2.33;;;1.73;;
6412;SDS011;3239;48.714;9.472;2023-04-25T07:20:29;6.43;;;1.87;;
6412;SDS011;3239;48.714;9.472;2023-04-25T07:22:56;5.30;;;2.37;;
6412;SDS011;3239;48.714;9.472;2023-04-25T07:25:22;2.50;;;2.07;;
6412;SDS011;3239;48.714;9.472;2023-04-25T07:27:48;2.10;;;1.83;;
6412;SDS011;3239;48.714;9.472;2023-04-25T07:30:14;5.70;;;2.20;;
6412;SDS011;3239;48.714;9.472;2023-04-25T07:32:40;3.37;;;2.50;;
6412;SDS011;3239;48.714;9.472;2023-04-25T07:35:06;2.77;;;2.20;;
6412;SDS011;3239;48.714;9.472;2023-04-25T07:37:35;3.10;;;2.13;;
6412;SDS011;3239;48.714;9.472;2023-04-25T07:40:02;3.50;;;2.30;;
6412;SDS011;3239;48.714;9.472;2023-04-25T07:42:29;4.57;;;1.90;;
6412;SDS011;3239;48.714;9.472;2023-04-25T07:44:55;3.40;;;2.40;;
6412;SDS011;3239;48.714;9.472;2023-04-25T07:47:21;4.37;;;2.57;;
6412;SDS011;3239;48.714;9.472;2023-04-25T07:49:47;2.43;;;2.03;;
6412;SDS011;3239;48.714;9.472;2023-04-25T07:52:12;3.40;;;2.10;;
6412;SDS011;3239;48.714;9.472;2023-04-25T07:54:38;4.47;;;1.80;;
6412;SDS011;3239;48.714;9.472;2023-04-25T07:57:04;2.57;;;2.17;;
6412;SDS011;3239;48.714;9.472;2023-04-25T07:59:31;3.10;;;2.53;;
6412;SDS011;3239;48.714;9.472;2023-04-25T08:01:57;2.90;;;1.77;;
6412;SDS011;3239;48.714;9.472;2023-04-25T08:04:23;2.77;;;1.90;;
6412;SDS011;3239;48.714;9.472;2023-04-25T08:06:52;2.23;;;2.03;;
6412;SDS011;3239;48.714;9.472;2023-04-25T08:09:19;3.20;;;2.10;;
6412;SDS011;3239;48.714;9.472;2023-04-25T08:11:45;2.77;;;2.53;;
6412;SDS011;3239;48.714;9.472;2023-04-25T08:14:12;3.27;;;2.90;;
6412;SDS011;3239;48.714;9.472;2023-04-25T08:16:38;4.60;;;2.37;;
6412;SDS011;3239;48.714;9.472;2023-04-25T08:19:04;2.80;;;2.50;;
6412;SDS011;3239;48.714;9.472;2023-04-25T08:21:31;3.10;;;2.23;;
6412;SDS011;3239;48.714;9.472;2023-04-25T08:23:57;4.80;;;2.60;;
6412;SDS011;3239;48.714;9.472;2023-04-25T08:26:23;2.37;;;1.90;;
6412;SDS011;3239;48.714;9.472;2023-04-25T08:28:50;3.80;;;2.90;;
6412;SDS011;3239;48.714;9.472;2023-04-25T08:31:16;3.40;;;3.07;;
6412;SDS011;3239;48.714;9.472;2023-04-25T08:33:42;3.07;;;2.60;;
6412;SDS011;3239;48.714;9.472;2023-04-25T08:36:08;4.80;;;3.20;;
6412;SDS011;3239;48.714;9.472;2023-04-25T08:38:34;3.83;;;3.53;;
6412;SDS011;3239;48.714;9.472;2023-04-25T08:41:01;6.00;;;3.37;;
6412;SDS011;3239;48.714;9.472;2023-04-25T08:43:27;3.83;;;3.33;;
6412;SDS011;3239;48.714;9.472;2023-04-25T08:45:57;4.73;;;3.77;;
6412;SDS011;3239;48.714;9.472;2023-04-25T08:48:26;7.00;;;3.90;;
6412;SDS011;3239;48.714;9.472;2023-04-25T08:50:55;3.77;;;3.33;;
6412;SDS011;3239;48.714;9.472;2023-04-25T08:53:31;4.80;;;3.90;;
6412;SDS011;3239;48.714;9.472;2023-04-25T08:55:59;10.07;;;3.60;;
6412;SDS011;3239;48.714;9.472;2023-04-25T08:58:27;4.90;;;3.47;;
6412;SDS011;3239;48.714;9.472;2023-04-25T09:00:53;4.03;;;3.63;;
6412;SDS011;3239;48.714;9.472;2023-04-25T09:03:19;5.30;;;4.10;;
6412;SDS011;3239;48.714;9.472;2023-04-25T09:05:45;4.13;;;3.73;;
6412;SDS011;3239;48.714;9.472;2023-04-25T09:08:11;5.57;;;4.63;;
6412;SDS011;3239;48.714;9.472;2023-04-25T09:10:37;4.90;;;4.10;;
6412;SDS011;3239;48.714;9.472;2023-04-25T09:15:46;4.93;;;4.13;;
6412;SDS011;3239;48.714;9.472;2023-04-25T09:18:21;4.57;;;4.00;;
6412;SDS011;3239;48.714;9.472;2023-04-25T09:20:52;5.90;;;4.30;;
6412;SDS011;3239;48.714;9.472;2023-04-25T09:23:19;6.70;;;4.23;;
6412;SDS011;3239;48.714;9.472;2023-04-25T09:25:47;4.70;;;4.30;;
6412;SDS011;3239;48.714;9.472;2023-04-25T09:28:14;5.20;;;4.70;;
6412;SDS011;3239;48.714;9.472;2023-04-25T09:30:39;10.30;;;4.50;;
6412;SDS011;3239;48.714;9.472;2023-04-25T09:33:06;5.43;;;4.20;;
6412;SDS011;3239;48.714;9.472;2023-04-25T09:35:37;7.27;;;4.93;;
6412;SDS011;3239;48.714;9.472;2023-04-25T09:38:08;4.97;;;4.20;;
6412;SDS011;3239;48.714;9.472;2023-04-25T09:40:42;4.40;;;3.90;;
6412;SDS011;3239;48.714;9.472;2023-04-25T09:45:47;6.00;;;4.60;;
6412;SDS011;3239;48.714;9.472;2023-04-25T09:48:18;5.00;;;3.90;;
6412;SDS011;3239;48.714;9.472;2023-04-25T09:53:33;5.47;;;4.43;;
6412;SDS011;3239;48.714;9.472;2023-04-25T09:56:08;6.40;;;4.90;;
6412;SDS011;3239;48.714;9.472;2023-04-25T09:58:37;5.20;;;4.70;;
6412;SDS011;3239;48.714;9.472;2023-04-25T10:01:07;5.33;;;4.47;;
6412;SDS011;3239;48.714;9.472;2023-04-25T10:03:36;6.10;;;4.90;;
6412;SDS011;3239;48.714;9.472;2023-04-25T10:06:09;5.33;;;4.50;;
6412;SDS011;3239;48.714;9.472;2023-04-25T10:08:39;8.20;;;5.50;;
6412;SDS011;3239;48.714;9.472;2023-04-25T10:11:06;13.20;;;9.50;;
6412;SDS011;3239;48.714;9.472;2023-04-25T10:13:34;10.77;;;7.30;;
6412;SDS011;3239;48.714;9.472;2023-04-25T10:16:04;6.77;;;5.60;;
6412;SDS011;3239;48.714;9.472;2023-04-25T10:18:31;3.87;;;3.57;;
6412;SDS011;3239;48.714;9.472;2023-04-25T10:20:58;7.60;;;4.33;;
6412;SDS011;3239;48.714;9.472;2023-04-25T10:23:26;7.13;;;5.33;;
6412;SDS011;3239;48.714;9.472;2023-04-25T10:25:54;5.37;;;4.60;;
6412;SDS011;3239;48.714;9.472;2023-04-25T10:28:20;4.33;;;3.93;;
6412;SDS011;3239;48.714;9.472;2023-04-25T10:31:03;5.60;;;4.70;;
6412;SDS011;3239;48.714;9.472;2023-04-25T10:33:36;6.80;;;5.10;;
6412;SDS011;3239;48.714;9.472;2023-04-25T10:36:14;5.00;;;3.93;;
6412;SDS011;3239;48.714;9.472;2023-04-25T10:38:43;4.63;;;4.23;;
6412;SDS011;3239;48.714;9.472;2023-04-25T10:41:12;5.23;;;3.70;;
6412;SDS011;3239;48.714;9.472;2023-04-25T10:43:45;3.80;;;3.40;;
6412;SDS011;3239;48.714;9.472;2023-04-25T10:46:16;3.90;;;3.50;;
6412;SDS011;3239;48.714;9.472;2023-04-25T10:48:52;6.60;;;4.97;;
6412;SDS011;3239;48.714;9.472;2023-04-25T10:51:25;4.43;;;3.60;;
6412;SDS011;3239;48.714;9.472;2023-04-25T10:53:59;4.27;;;2.37;;
6412;SDS011;3239;48.714;9.472;2023-04-25T10:56:30;2.60;;;1.90;;
6412;SDS011;3239;48.714;9.472;2023-04-25T11:01:43;2.13;;;1.80;;
6412;SDS011;3239;48.714;9.472;2023-04-25T11:04:24;3.10;;;2.00;;
6412;SDS011;3239;48.714;9.472;2023-04-25T11:09:25;3.70;;;3.23;;
6412;SDS011;3239;48.714;9.472;2023-04-25T11:11:55;3.30;;;3.00;;
6412;SDS011;3239;48.714;9.472;2023-04-25T11:14:22;5.47;;;4.40;;
6412;SDS011;3239;48.714;9.472;2023-04-25T11:16:55;3.37;;;3.10;;
6412;SDS011;3239;48.714;9.472;2023-04-25T11:19:23;4.03;;;3.73;;
6412;SDS011;3239;48.714;9.472;2023-04-25T11:21:50;3.00;;;2.80;;
6412;SDS011;3239;48.714;9.472;2023-04-25T11:24:19;3.93;;;2.80;;
6412;SDS011;3239;48.714;9.472;2023-04-25T11:26:50;3.30;;;3.00;;
6412;SDS011;3239;48.714;9.472;2023-04-25T11:29:16;4.50;;;3.30;;
6412;SDS011;3239;48.714;9.472;2023-04-25T11:31:45;3.33;;;2.83;;
6412;SDS011;3239;48.714;9.472;2023-04-25T11:34:11;4.17;;;2.73;;
6412;SDS011;3239;48.714;9.472;2023-04-25T11:36:38;3.10;;;2.17;;
6412;SDS011;3239;48.714;9.472;2023-04-25T11:39:04;2.07;;;1.87;;
6412;SDS011;3239;48.714;9.472;2023-04-25T11:41:30;1.63;;;1.20;;
6412;SDS011;3239;48.714;9.472;2023-04-25T11:43:56;5.33;;;1.40;;
6412;SDS011;3239;48.714;9.472;2023-04-25T11:46:22;1.20;;;0.97;;
6412;SDS011;3239;48.714;9.472;2023-04-25T11:48:48;1.10;;;0.80;;
6412;SDS011;3239;48.714;9.472;2023-04-25T11:51:15;1.60;;;0.90;;
6412;SDS011;3239;48.714;9.472;2023-04-25T11:53:41;2.50;;;0.90;;
6412;SDS011;3239;48.714;9.472;2023-04-25T11:56:10;1.10;;;0.80;;
6412;SDS011;3239;48.714;9.472;2023-04-25T11:58:56;1.57;;;0.80;;
6412;SDS011;3239;48.714;9.472;2023-04-25T12:01:30;1.33;;;1.00;;
6412;SDS011;3239;48.714;9.472;2023-04-25T12:04:12;1.03;;;0.77;;
6412;SDS011;3239;48.714;9.472;2023-04-25T12:06:41;1.40;;;0.70;;
6412;SDS011;3239;48.714;9.472;2023-04-25T12:09:09;1.00;;;0.60;;
6412;SDS011;3239;48.714;9.472;2023-04-25T12:11:45;1.00;;;0.70;;
6412;SDS011;3239;48.714;9.472;2023-04-25T12:14:32;1.57;;;1.47;;
6412;SDS011;3239;48.714;9.472;2023-04-25T12:17:01;1.00;;;0.70;;
6412;SDS011;3239;48.714;9.472;2023-04-25T12:19:32;0.90;;;0.70;;
6412;SDS011;3239;48.714;9.472;2023-04-25T12:22:00;1.10;;;0.70;;
6412;SDS011;3239;48.714;9.472;2023-04-25T12:24:28;2.50;;;1.10;;
6412;SDS011;3239;48.714;9.472;2023-04-25T12:29:28;1.40;;;0.90;;
6412;SDS011;3239;48.714;9.472;2023-04-25T12:31:58;2.10;;;0.83;;
6412;SDS011;3239;48.714;9.472;2023-04-25T12:34:27;0.90;;;0.70;;
6412;SDS011;3239;48.714;9.472;2023-04-25T12:36:53;1.50;;;1.03;;
6412;SDS011;3239;48.714;9.472;2023-04-25T12:39:20;1.80;;;1.10;;
6412;SDS011;3239;48.714;9.472;2023-04-25T12:41:48;1.70;;;1.23;;
6412;SDS011;3239;48.714;9.472;2023-04-25T12:44:15;3.07;;;1.33;;
6412;SDS011;3239;48.714;9.472;2023-04-25T12:46:41;1.67;;;1.00;;
6412;SDS011;3239;48.714;9.472;2023-04-25T12:49:07;1.37;;;1.00;;
6412;SDS011;3239;48.714;9.472;2023-04-25T12:51:33;1.90;;;1.17;;
6412;SDS011;3239;48.714;9.472;2023-04-25T12:54:00;1.40;;;1.17;;
6412;SDS011;3239;48.714;9.472;2023-04-25T12:56:28;1.57;;;1.27;;
6412;SDS011;3239;48.714;9.472;2023-04-25T12:58:55;1.20;;;0.97;;
6412;SDS011;3239;48.714;9.472;2023-04-25T13:01:21;1.80;;;1.57;;
6412;SDS011;3239;48.714;9.472;2023-04-25T13:03:47;1.80;;;1.50;;
6412;SDS011;3239;48.714;9.472;2023-04-25T13:06:14;6.80;;;1.60;;
6412;SDS011;3239;48.714;9.472;2023-04-25T13:08:40;4.00;;;1.57;;
6412;SDS011;3239;48.714;9.472;2023-04-25T13:11:07;2.37;;;1.33;;
6412;SDS011;3239;48.714;9.472;2023-04-25T13:13:33;1.70;;;1.60;;
6412;SDS011;3239;48.714;9.472;2023-04-25T13:16:00;1.97;;;1.83;;
6412;SDS011;3239;48.714;9.472;2023-04-25T13:18:30;1.83;;;1.40;;
6412;SDS011;3239;48.714;9.472;2023-04-25T13:20:56;2.60;;;1.50;;
6412;SDS011;3239;48.714;9.472;2023-04-25T13:23:24;2.97;;;2.47;;
6412;SDS011;3239;48.714;9.472;2023-04-25T13:25:52;4.27;;;2.30;;
6412;SDS011;3239;48.714;9.472;2023-04-25T13:28:18;2.43;;;2.23;;
6412;SDS011;3239;48.714;9.472;2023-04-25T13:30:44;2.83;;;2.50;;
6412;SDS011;3239;48.714;9.472;2023-04-25T13:33:10;3.17;;;2.87;;
6412;SDS011;3239;48.714;9.472;2023-04-25T13:35:37;3.23;;;2.80;;
6412;SDS011;3239;48.714;9.472;2023-04-25T13:38:03;3.93;;;3.40;;
6412;SDS011;3239;48.714;9.472;2023-04-25T13:40:29;3.40;;;3.10;;
6412;SDS011;3239;48.714;9.472;2023-04-25T13:42:56;4.40;;;4.00;;
6412;SDS011;3239;48.714;9.472;2023-04-25T13:45:22;3.20;;;2.90;;
6412;SDS011;3239;48.714;9.472;2023-04-25T13:47:48;3.23;;;2.93;;
6412;SDS011;3239;48.714;9.472;2023-04-25T13:50:14;3.67;;;3.30;;
6412;SDS011;3239;48.714;9.472;2023-04-25T13:52:41;4.17;;;3.40;;
6412;SDS011;3239;48.714;9.472;2023-04-25T13:55:07;3.67;;;3.37;;
6412;SDS011;3239;48.714;9.472;2023-04-25T13:57:34;4.00;;;3.27;;
6412;SDS011;3239;48.714;9.472;2023-04-25T14:00:01;4.50;;;3.50;;
6412;SDS011;3239;48.714;9.472;2023-04-25T14:02:34;6.20;;;3.50;;
6412;SDS011;3239;48.714;9.472;2023-04-25T14:05:01;6.23;;;4.40;;
6412;SDS011;3239;48.714;9.472;2023-04-25T14:07:28;3.53;;;3.20;;
6412;SDS011;3239;48.714;9.472;2023-04-25T14:09:55;4.70;;;3.80;;
6412;SDS011;3239;48.714;9.472;2023-04-25T14:12:22;4.47;;;3.40;;
6412;SDS011;3239;48.714;9.472;2023-04-25T14:14:48;4.80;;;4.33;;
6412;SDS011;3239;48.714;9.472;2023-04-25T14:17:14;5.23;;;3.40;;
6412;SDS011;3239;48.714;9.472;2023-04-25T14:19:40;6.70;;;4.80;;
6412;SDS011;3239;48.714;9.472;2023-04-25T14:22:10;5.03;;;4.63;;
6412;SDS011;3239;48.714;9.472;2023-04-25T14:24:36;4.50;;;4.07;;
6412;SDS011;3239;48.714;9.472;2023-04-25T14:27:02;4.80;;;3.93;;
6412;SDS011;3239;48.714;9.472;2023-04-25T14:29:29;6.33;;;3.73;;
6412;SDS011;3239;48.714;9.472;2023-04-25T14:31:55;4.43;;;4.10;;
6412;SDS011;3239;48.714;9.472;2023-04-25T14:34:22;6.47;;;4.40;;
6412;SDS011;3239;48.714;9.472;2023-04-25T14:36:48;4.70;;;3.93;;
6412;SDS011;3239;48.714;9.472;2023-04-25T14:39:14;6.37;;;4.60;;
6412;SDS011;3239;48.714;9.472;2023-04-25T14:41:41;4.43;;;3.97;;
6412;SDS011;3239;48.714;9.472;2023-04-25T14:44:07;4.53;;;3.73;;
6412;SDS011;3239;48.714;9.472;2023-04-25T14:46:33;4.93;;;4.30;;
6412;SDS011;3239;48.714;9.472;2023-04-25T14:48:59;4.60;;;4.20;;
6412;SDS011;3239;48.714;9.472;2023-04-25T14:51:26;4.20;;;3.80;;
6412;SDS011;3239;48.714;9.472;2023-04-25T14:53:52;5.13;;;4.30;;
6412;SDS011;3239;48.714;9.472;2023-04-25T14:56:18;7.40;;;5.10;;
6412;SDS011;3239;48.714;9.472;2023-04-25T14:58:44;5.00;;;4.53;;
6412;SDS011;3239;48.714;9.472;2023-04-25T15:01:10;4.77;;;4.37;;
6412;SDS011;3239;48.714;9.472;2023-04-25T15:03:37;5.70;;;4.20;;
6412;SDS011;3239;48.714;9.472;2023-04-25T15:06:05;5.20;;;4.73;;
6412;SDS011;3239;48.714;9.472;2023-04-25T15:08:31;5.23;;;4.03;;
6412;SDS011;3239;48.714;9.472;2023-04-25T15:10:57;6.23;;;5.10;;
6412;SDS011;3239;48.714;9.472;2023-04-25T15:13:23;11.07;;;4.87;;
6412;SDS011;3239;48.714;9.472;2023-04-25T15:15:50;8.77;;;5.47;;
6412;SDS011;3239;48.714;9.472;2023-04-25T15:18:19;4.53;;;4.13;;
6412;SDS011;3239;48.714;9.472;2023-04-25T15:20:50;4.73;;;4.20;;
6412;SDS011;3239;48.714;9.472;2023-04-25T15:23:17;5.47;;;4.93;;
6412;SDS011;3239;48.714;9.472;2023-04-25T15:25:44;6.73;;;4.00;;
6412;SDS011;3239;48.714;9.472;2023-04-25T15:28:10;4.97;;;4.50;;
6412;SDS011;3239;48.714;9.472;2023-04-25T15:30:36;6.87;;;5.30;;